sensor_id;sensor_type;location;lat;lon;timestamp;P1;durP1;ratioP1;P2;durP2;ratioP2
920;SDS011;447;51.332;6.778;2022-12-07T00:01:49;6.20;;;5.50;;
920;SDS011;447;51.332;6.778;2022-12-07T00:04:18;8.87;;;6.37;;
920;SDS011;447;51.332;6.778;2022-12-07T00:06:44;8.83;;;6.90;;
920;SDS011;447;51.332;6.778;2022-12-07T00:09:18;8.17;;;6.40;;
920;SDS011;447;51.332;6.778;2022-12-07T00:11:45;11.20;;;6.50;;
920;SDS011;447;51.332;6.778;2022-12-07T00:14:18;8.33;;;5.43;;
920;SDS011;447;51.332;6.778;2022-12-07T00:16:44;6.88;;;5.63;;
920;SDS011;447;51.332;6.778;2022-12-07T00:19:13;8.33;;;6.27;;
920;SDS011;447;51.332;6.778;2022-12-07T00:21:42;7.78;;;6.00;;
920;SDS011;447;51.332;6.778;2022-12-07T00:24:09;7.27;;;5.70;;
920;SDS011;447;51.332;6.778;2022-12-07T00:26:37;9.00;;;6.28;;
920;SDS011;447;51.332;6.778;2022-12-07T00:29:09;7.18;;;5.38;;
920;SDS011;447;51.332;6.778;2022-12-07T00:31:40;7.65;;;5.47;;
920;SDS011;447;51.332;6.778;2022-12-07T00:34:07;9.13;;;7.30;;
920;SDS011;447;51.332;6.778;2022-12-07T00:36:36;8.20;;;6.40;;
920;SDS011;447;51.332;6.778;2022-12-07T00:39:02;8.80;;;6.97;;
920;SDS011;447;51.332;6.778;2022-12-07T00:41:33;7.70;;;6.40;;
920;SDS011;447;51.332;6.778;2022-12-07T00:44:02;8.80;;;6.23;;
920;SDS011;447;51.332;6.778;2022-12-07T00:46:28;7.07;;;5.70;;
920;SDS011;447;51.332;6.778;2022-12-07T00:48:55;6.60;;;6.00;;
920;SDS011;447;51.332;6.778;2022-12-07T00:51:22;13.53;;;6.17;;
920;SDS011;447;51.332;6.778;2022-12-07T00:53:52;11.27;;;6.00;;
920;SDS011;447;51.332;6.778;2022-12-07T00:56:19;7.15;;;6.13;;
920;SDS011;447;51.332;6.778;2022-12-07T00:58:52;9.07;;;6.63;;
920;SDS011;447;51.332;6.778;2022-12-07T01:01:21;6.97;;;5.90;;
920;SDS011;447;51.332;6.778;2022-12-07T01:03:49;7.43;;;6.30;;
920;SDS011;447;51.332;6.778;2022-12-07T01:06:16;6.77;;;5.80;;
920;SDS011;447;51.332;6.778;2022-12-07T01:08:46;7.17;;;6.00;;
920;SDS011;447;51.332;6.778;2022-12-07T01:11:13;6.83;;;5.50;;
920;SDS011;447;51.332;6.778;2022-12-07T01:13:43;6.40;;;5.70;;
920;SDS011;447;51.332;6.778;2022-12-07T01:16:11;6.97;;;6.20;;
920;SDS011;447;51.332;6.778;2022-12-07T01:18:38;7.50;;;5.80;;
920;SDS011;447;51.332;6.778;2022-12-07T01:21:05;7.40;;;6.57;;
920;SDS011;447;51.332;6.778;2022-12-07T01:23:42;8.97;;;6.00;;
920;SDS011;447;51.332;6.778;2022-12-07T01:26:12;8.88;;;5.80;;
920;SDS011;447;51.332;6.778;2022-12-07T01:28:42;8.33;;;6.67;;
920;SDS011;447;51.332;6.778;2022-12-07T01:31:09;7.83;;;6.27;;
920;SDS011;447;51.332;6.778;2022-12-07T01:33:37;6.90;;;5.77;;
920;SDS011;447;51.332;6.778;2022-12-07T01:38:34;7.40;;;5.68;;
920;SDS011;447;51.332;6.778;2022-12-07T01:41:01;10.10;;;7.00;;
920;SDS011;447;51.332;6.778;2022-12-07T01:43:31;8.07;;;6.70;;
920;SDS011;447;51.332;6.778;2022-12-07T01:45:58;6.63;;;5.63;;
920;SDS011;447;51.332;6.778;2022-12-07T01:48:43;9.60;;;7.10;;
920;SDS011;447;51.332;6.778;2022-12-07T01:51:10;9.43;;;6.80;;
920;SDS011;447;51.332;6.778;2022-12-07T01:53:43;6.73;;;5.27;;
920;SDS011;447;51.332;6.778;2022-12-07T01:56:12;7.20;;;6.50;;
920;SDS011;447;51.332;6.778;2022-12-07T01:58:45;7.73;;;6.57;;
920;SDS011;447;51.332;6.778;2022-12-07T02:01:12;7.40;;;6.13;;
920;SDS011;447;51.332;6.778;2022-12-07T02:03:39;6.80;;;6.10;;
920;SDS011;447;51.332;6.778;2022-12-07T02:06:07;7.67;;;5.97;;
920;SDS011;447;51.332;6.778;2022-12-07T02:08:37;6.50;;;5.53;;
920;SDS011;447;51.332;6.778;2022-12-07T02:11:04;11.10;;;6.60;;
920;SDS011;447;51.332;6.778;2022-12-07T02:13:32;6.43;;;5.60;;
920;SDS011;447;51.332;6.778;2022-12-07T02:29:47;7.73;;;6.03;;
920;SDS011;447;51.332;6.778;2022-12-07T02:32:26;8.93;;;6.60;;
920;SDS011;447;51.332;6.778;2022-12-07T02:35:05;8.63;;;6.30;;
920;SDS011;447;51.332;6.778;2022-12-07T02:37:39;7.57;;;6.00;;
920;SDS011;447;51.332;6.778;2022-12-07T02:46:02;8.23;;;5.87;;
920;SDS011;447;51.332;6.778;2022-12-07T02:48:37;7.70;;;5.43;;
920;SDS011;447;51.332;6.778;2022-12-07T02:51:06;7.63;;;5.97;;
920;SDS011;447;51.332;6.778;2022-12-07T02:53:43;8.00;;;5.70;;
920;SDS011;447;51.332;6.778;2022-12-07T02:56:25;10.13;;;5.63;;
920;SDS011;447;51.332;6.778;2022-12-07T03:07:02;5.60;;;5.00;;
920;SDS011;447;51.332;6.778;2022-12-07T03:09:51;6.50;;;5.27;;
920;SDS011;447;51.332;6.778;2022-12-07T03:12:53;7.35;;;4.80;;
920;SDS011;447;51.332;6.778;2022-12-07T03:15:31;8.25;;;5.90;;
920;SDS011;447;51.332;6.778;2022-12-07T03:18:11;7.85;;;6.25;;
920;SDS011;447;51.332;6.778;2022-12-07T03:20:41;6.25;;;5.65;;
920;SDS011;447;51.332;6.778;2022-12-07T03:23:18;9.10;;;5.50;;
920;SDS011;447;51.332;6.778;2022-12-07T03:25:47;6.10;;;5.33;;
920;SDS011;447;51.332;6.778;2022-12-07T03:28:18;7.03;;;5.35;;
920;SDS011;447;51.332;6.778;2022-12-07T03:30:56;5.93;;;5.33;;
920;SDS011;447;51.332;6.778;2022-12-07T03:33:35;7.90;;;6.00;;
920;SDS011;447;51.332;6.778;2022-12-07T03:36:14;6.10;;;5.50;;
920;SDS011;447;51.332;6.778;2022-12-07T03:38:52;7.00;;;5.85;;
920;SDS011;447;51.332;6.778;2022-12-07T03:41:25;7.88;;;5.60;;
920;SDS011;447;51.332;6.778;2022-12-07T03:43:56;6.80;;;5.93;;
920;SDS011;447;51.332;6.778;2022-12-07T03:46:35;5.90;;;5.20;;
920;SDS011;447;51.332;6.778;2022-12-07T03:49:11;7.73;;;5.87;;
920;SDS011;447;51.332;6.778;2022-12-07T03:54:19;7.67;;;6.33;;
920;SDS011;447;51.332;6.778;2022-12-07T03:56:54;6.57;;;5.90;;
920;SDS011;447;51.332;6.778;2022-12-07T03:59:25;8.63;;;5.85;;
920;SDS011;447;51.332;6.778;2022-12-07T04:01:55;10.02;;;5.78;;
920;SDS011;447;51.332;6.778;2022-12-07T04:04:28;8.10;;;6.50;;
920;SDS011;447;51.332;6.778;2022-12-07T04:06:57;6.63;;;5.70;;
920;SDS011;447;51.332;6.778;2022-12-07T04:09:23;12.43;;;6.40;;
920;SDS011;447;51.332;6.778;2022-12-07T04:11:51;8.63;;;5.97;;
920;SDS011;447;51.332;6.778;2022-12-07T04:14:20;8.40;;;6.53;;
920;SDS011;447;51.332;6.778;2022-12-07T04:16:50;9.33;;;6.70;;
920;SDS011;447;51.332;6.778;2022-12-07T04:19:19;7.43;;;5.40;;
920;SDS011;447;51.332;6.778;2022-12-07T04:21:47;8.80;;;6.57;;
920;SDS011;447;51.332;6.778;2022-12-07T04:24:14;9.23;;;6.23;;
920;SDS011;447;51.332;6.778;2022-12-07T04:26:46;6.65;;;5.55;;
920;SDS011;447;51.332;6.778;2022-12-07T04:29:16;7.40;;;6.25;;
920;SDS011;447;51.332;6.778;2022-12-07T04:31:46;7.10;;;6.03;;
920;SDS011;447;51.332;6.778;2022-12-07T04:34:16;9.27;;;6.83;;
920;SDS011;447;51.332;6.778;2022-12-07T04:36:43;8.10;;;6.70;;
920;SDS011;447;51.332;6.778;2022-12-07T04:39:23;8.65;;;6.53;;
920;SDS011;447;51.332;6.778;2022-12-07T04:41:54;6.60;;;5.45;;
920;SDS011;447;51.332;6.778;2022-12-07T04:44:24;7.88;;;5.95;;
920;SDS011;447;51.332;6.778;2022-12-07T04:46:51;6.80;;;5.50;;
920;SDS011;447;51.332;6.778;2022-12-07T04:49:19;8.27;;;6.75;;
920;SDS011;447;51.332;6.778;2022-12-07T04:51:48;7.70;;;5.57;;
920;SDS011;447;51.332;6.778;2022-12-07T04:54:18;8.10;;;6.38;;
920;SDS011;447;51.332;6.778;2022-12-07T04:56:44;6.90;;;5.70;;
920;SDS011;447;51.332;6.778;2022-12-07T04:59:10;8.77;;;6.90;;
920;SDS011;447;51.332;6.778;2022-12-07T05:01:40;7.80;;;5.60;;
920;SDS011;447;51.332;6.778;2022-12-07T05:04:08;7.07;;;6.03;;
920;SDS011;447;51.332;6.778;2022-12-07T05:06:34;9.05;;;5.60;;
920;SDS011;447;51.332;6.778;2022-12-07T05:09:00;7.30;;;5.50;;
920;SDS011;447;51.332;6.778;2022-12-07T05:11:34;8.00;;;5.40;;
920;SDS011;447;51.332;6.778;2022-12-07T05:14:04;6.90;;;6.20;;
920;SDS011;447;51.332;6.778;2022-12-07T05:16:33;9.02;;;5.78;;
920;SDS011;447;51.332;6.778;2022-12-07T05:18:59;7.72;;;5.50;;
920;SDS011;447;51.332;6.778;2022-12-07T05:21:25;9.20;;;5.77;;
920;SDS011;447;51.332;6.778;2022-12-07T05:23:51;6.75;;;5.85;;
920;SDS011;447;51.332;6.778;2022-12-07T05:26:19;6.93;;;5.40;;
920;SDS011;447;51.332;6.778;2022-12-07T05:28:51;8.40;;;5.37;;
920;SDS011;447;51.332;6.778;2022-12-07T05:31:19;9.00;;;5.50;;
920;SDS011;447;51.332;6.778;2022-12-07T05:33:45;7.05;;;5.18;;
920;SDS011;447;51.332;6.778;2022-12-07T05:36:16;6.43;;;5.43;;
920;SDS011;447;51.332;6.778;2022-12-07T05:38:45;6.47;;;5.35;;
920;SDS011;447;51.332;6.778;2022-12-07T05:41:14;11.23;;;5.30;;
920;SDS011;447;51.332;6.778;2022-12-07T05:44:03;6.90;;;5.60;;
920;SDS011;447;51.332;6.778;2022-12-07T05:46:32;5.93;;;5.10;;
920;SDS011;447;51.332;6.778;2022-12-07T05:48:59;7.70;;;4.90;;
920;SDS011;447;51.332;6.778;2022-12-07T05:51:25;5.73;;;4.60;;
920;SDS011;447;51.332;6.778;2022-12-07T05:53:54;7.35;;;5.53;;
920;SDS011;447;51.332;6.778;2022-12-07T05:56:24;5.40;;;4.33;;
920;SDS011;447;51.332;6.778;2022-12-07T05:58:51;6.78;;;5.18;;
920;SDS011;447;51.332;6.778;2022-12-07T06:01:38;5.55;;;4.60;;
920;SDS011;447;51.332;6.778;2022-12-07T06:04:08;6.00;;;4.20;;
920;SDS011;447;51.332;6.778;2022-12-07T06:06:41;7.45;;;4.80;;
920;SDS011;447;51.332;6.778;2022-12-07T06:09:09;10.07;;;4.63;;
920;SDS011;447;51.332;6.778;2022-12-07T06:11:36;6.07;;;4.50;;
920;SDS011;447;51.332;6.778;2022-12-07T06:14:25;4.20;;;3.80;;
920;SDS011;447;51.332;6.778;2022-12-07T06:16:54;4.20;;;3.47;;
920;SDS011;447;51.332;6.778;2022-12-07T06:19:25;6.43;;;4.25;;
920;SDS011;447;51.332;6.778;2022-12-07T06:21:58;5.25;;;4.05;;
920;SDS011;447;51.332;6.778;2022-12-07T06:24:30;6.00;;;4.28;;
920;SDS011;447;51.332;6.778;2022-12-07T06:26:57;3.25;;;2.80;;
920;SDS011;447;51.332;6.778;2022-12-07T06:29:25;4.67;;;4.20;;
920;SDS011;447;51.332;6.778;2022-12-07T06:31:51;5.30;;;3.77;;
920;SDS011;447;51.332;6.778;2022-12-07T06:34:23;6.03;;;4.15;;
920;SDS011;447;51.332;6.778;2022-12-07T06:36:52;5.60;;;3.90;;
920;SDS011;447;51.332;6.778;2022-12-07T06:39:24;4.38;;;3.60;;
920;SDS011;447;51.332;6.778;2022-12-07T06:41:54;5.35;;;3.20;;
920;SDS011;447;51.332;6.778;2022-12-07T06:44:23;4.32;;;3.58;;
920;SDS011;447;51.332;6.778;2022-12-07T06:46:50;4.40;;;3.73;;
920;SDS011;447;51.332;6.778;2022-12-07T06:49:16;4.72;;;3.85;;
920;SDS011;447;51.332;6.778;2022-12-07T06:51:47;6.95;;;3.67;;
920;SDS011;447;51.332;6.778;2022-12-07T06:54:16;4.80;;;3.77;;
920;SDS011;447;51.332;6.778;2022-12-07T06:56:42;5.55;;;3.47;;
920;SDS011;447;51.332;6.778;2022-12-07T06:59:10;4.93;;;4.30;;
920;SDS011;447;51.332;6.778;2022-12-07T07:01:36;5.10;;;3.50;;
920;SDS011;447;51.332;6.778;2022-12-07T07:04:05;3.80;;;3.30;;
920;SDS011;447;51.332;6.778;2022-12-07T07:06:33;8.00;;;4.38;;
920;SDS011;447;51.332;6.778;2022-12-07T07:09:02;4.13;;;3.60;;
920;SDS011;447;51.332;6.778;2022-12-07T07:11:28;4.73;;;3.47;;
920;SDS011;447;51.332;6.778;2022-12-07T07:13:54;5.20;;;3.63;;
920;SDS011;447;51.332;6.778;2022-12-07T07:16:25;3.77;;;3.10;;
920;SDS011;447;51.332;6.778;2022-12-07T07:18:52;4.13;;;3.20;;
920;SDS011;447;51.332;6.778;2022-12-07T07:21:18;3.78;;;3.25;;
920;SDS011;447;51.332;6.778;2022-12-07T07:23:47;9.40;;;3.80;;
920;SDS011;447;51.332;6.778;2022-12-07T07:26:13;4.30;;;2.80;;
920;SDS011;447;51.332;6.778;2022-12-07T07:28:39;4.43;;;3.63;;
920;SDS011;447;51.332;6.778;2022-12-07T07:31:09;6.05;;;2.97;;
920;SDS011;447;51.332;6.778;2022-12-07T07:33:40;5.97;;;3.90;;
920;SDS011;447;51.332;6.778;2022-12-07T07:36:06;5.38;;;3.53;;
920;SDS011;447;51.332;6.778;2022-12-07T07:38:32;4.30;;;3.40;;
920;SDS011;447;51.332;6.778;2022-12-07T07:41:01;4.50;;;3.60;;
920;SDS011;447;51.332;6.778;2022-12-07T07:43:27;5.03;;;3.60;;
920;SDS011;447;51.332;6.778;2022-12-07T07:45:53;6.97;;;4.33;;
920;SDS011;447;51.332;6.778;2022-12-07T07:48:21;3.87;;;3.10;;
920;SDS011;447;51.332;6.778;2022-12-07T07:50:50;4.43;;;3.50;;
920;SDS011;447;51.332;6.778;2022-12-07T07:53:16;4.70;;;3.90;;
920;SDS011;447;51.332;6.778;2022-12-07T07:55:51;3.40;;;3.10;;
920;SDS011;447;51.332;6.778;2022-12-07T07:58:18;5.17;;;3.67;;
920;SDS011;447;51.332;6.778;2022-12-07T08:00:47;6.10;;;3.80;;
920;SDS011;447;51.332;6.778;2022-12-07T08:03:16;4.10;;;3.70;;
920;SDS011;447;51.332;6.778;2022-12-07T08:05:47;4.35;;;3.65;;
920;SDS011;447;51.332;6.778;2022-12-07T08:08:15;6.63;;;2.97;;
920;SDS011;447;51.332;6.778;2022-12-07T08:10:41;4.90;;;3.55;;
920;SDS011;447;51.332;6.778;2022-12-07T08:13:08;3.97;;;3.37;;
920;SDS011;447;51.332;6.778;2022-12-07T08:15:50;3.95;;;3.45;;
920;SDS011;447;51.332;6.778;2022-12-07T08:18:16;4.40;;;3.53;;
920;SDS011;447;51.332;6.778;2022-12-07T08:20:42;5.70;;;4.60;;
920;SDS011;447;51.332;6.778;2022-12-07T08:23:13;6.10;;;3.58;;
920;SDS011;447;51.332;6.778;2022-12-07T08:25:45;5.07;;;4.10;;
920;SDS011;447;51.332;6.778;2022-12-07T08:28:10;5.50;;;3.40;;
920;SDS011;447;51.332;6.778;2022-12-07T08:30:37;4.68;;;3.78;;
920;SDS011;447;51.332;6.778;2022-12-07T08:33:08;3.50;;;2.97;;
920;SDS011;447;51.332;6.778;2022-12-07T08:35:35;3.90;;;3.37;;
920;SDS011;447;51.332;6.778;2022-12-07T08:38:01;7.68;;;3.63;;
920;SDS011;447;51.332;6.778;2022-12-07T08:40:28;4.30;;;3.63;;
920;SDS011;447;51.332;6.778;2022-12-07T08:42:57;5.83;;;3.10;;
920;SDS011;447;51.332;6.778;2022-12-07T08:45:30;4.60;;;3.50;;
920;SDS011;447;51.332;6.778;2022-12-07T08:48:06;5.73;;;3.60;;
920;SDS011;447;51.332;6.778;2022-12-07T08:50:36;4.77;;;3.83;;
920;SDS011;447;51.332;6.778;2022-12-07T08:53:03;4.30;;;3.50;;
920;SDS011;447;51.332;6.778;2022-12-07T08:55:30;5.10;;;4.20;;
920;SDS011;447;51.332;6.778;2022-12-07T08:57:59;4.33;;;3.73;;
920;SDS011;447;51.332;6.778;2022-12-07T09:00:26;6.00;;;3.85;;
920;SDS011;447;51.332;6.778;2022-12-07T09:02:53;4.25;;;3.85;;
920;SDS011;447;51.332;6.778;2022-12-07T09:05:24;7.43;;;3.53;;
920;SDS011;447;51.332;6.778;2022-12-07T09:07:51;4.07;;;3.67;;
920;SDS011;447;51.332;6.778;2022-12-07T09:10:21;8.13;;;4.20;;
920;SDS011;447;51.332;6.778;2022-12-07T09:12:48;4.50;;;3.40;;
920;SDS011;447;51.332;6.778;2022-12-07T09:15:15;4.50;;;3.60;;
920;SDS011;447;51.332;6.778;2022-12-07T09:17:41;6.07;;;4.10;;
920;SDS011;447;51.332;6.778;2022-12-07T09:20:07;5.82;;;4.18;;
920;SDS011;447;51.332;6.778;2022-12-07T09:22:36;3.90;;;3.45;;
920;SDS011;447;51.332;6.778;2022-12-07T09:25:07;7.70;;;3.60;;
920;SDS011;447;51.332;6.778;2022-12-07T09:27:36;6.23;;;3.60;;
920;SDS011;447;51.332;6.778;2022-12-07T09:30:02;5.73;;;3.73;;
920;SDS011;447;51.332;6.778;2022-12-07T09:32:29;4.55;;;3.00;;
920;SDS011;447;51.332;6.778;2022-12-07T09:34:55;6.40;;;3.40;;
920;SDS011;447;51.332;6.778;2022-12-07T09:37:27;5.97;;;4.10;;
920;SDS011;447;51.332;6.778;2022-12-07T09:39:56;5.57;;;3.30;;
920;SDS011;447;51.332;6.778;2022-12-07T09:42:30;4.00;;;3.30;;
920;SDS011;447;51.332;6.778;2022-12-07T09:44:59;3.53;;;3.22;;
920;SDS011;447;51.332;6.778;2022-12-07T09:47:29;5.38;;;3.15;;
920;SDS011;447;51.332;6.778;2022-12-07T09:50:00;6.40;;;3.10;;
920;SDS011;447;51.332;6.778;2022-12-07T09:52:29;6.13;;;3.50;;
920;SDS011;447;51.332;6.778;2022-12-07T09:54:56;7.00;;;3.70;;
920;SDS011;447;51.332;6.778;2022-12-07T09:57:27;5.50;;;3.33;;
920;SDS011;447;51.332;6.778;2022-12-07T10:00:00;6.13;;;3.83;;
920;SDS011;447;51.332;6.778;2022-12-07T10:02:35;4.90;;;3.37;;
920;SDS011;447;51.332;6.778;2022-12-07T10:05:03;5.43;;;3.00;;
920;SDS011;447;51.332;6.778;2022-12-07T10:07:36;5.95;;;3.67;;
920;SDS011;447;51.332;6.778;2022-12-07T10:10:03;8.63;;;3.40;;
920;SDS011;447;51.332;6.778;2022-12-07T10:21:04;5.07;;;3.22;;
920;SDS011;447;51.332;6.778;2022-12-07T10:23:37;4.18;;;2.72;;
920;SDS011;447;51.332;6.778;2022-12-07T10:26:26;3.45;;;2.83;;
920;SDS011;447;51.332;6.778;2022-12-07T10:31:59;5.15;;;3.83;;
920;SDS011;447;51.332;6.778;2022-12-07T10:34:33;4.95;;;3.40;;
920;SDS011;447;51.332;6.778;2022-12-07T10:39:52;4.97;;;3.53;;
920;SDS011;447;51.332;6.778;2022-12-07T10:50:36;4.32;;;3.45;;
920;SDS011;447;51.332;6.778;2022-12-07T11:01:43;4.30;;;3.30;;
920;SDS011;447;51.332;6.778;2022-12-07T11:10:26;5.20;;;3.05;;
920;SDS011;447;51.332;6.778;2022-12-07T11:24:02;6.20;;;3.47;;
920;SDS011;447;51.332;6.778;2022-12-07T11:29:47;5.20;;;3.30;;
920;SDS011;447;51.332;6.778;2022-12-07T11:38:10;4.40;;;3.17;;
920;SDS011;447;51.332;6.778;2022-12-07T11:40:43;3.80;;;2.83;;
920;SDS011;447;51.332;6.778;2022-12-07T11:46:05;5.20;;;3.17;;
920;SDS011;447;51.332;6.778;2022-12-07T11:49:33;7.67;;;3.60;;
920;SDS011;447;51.332;6.778;2022-12-07T11:51:40;3.42;;;2.42;;
920;SDS011;447;51.332;6.778;2022-12-07T11:54:14;8.77;;;2.83;;
920;SDS011;447;51.332;6.778;2022-12-07T11:56:49;6.55;;;3.30;;
920;SDS011;447;51.332;6.778;2022-12-07T12:02:12;6.28;;;2.63;;
920;SDS011;447;51.332;6.778;2022-12-07T12:04:54;3.03;;;2.72;;
920;SDS011;447;51.332;6.778;2022-12-07T12:07:26;3.60;;;2.53;;
920;SDS011;447;51.332;6.778;2022-12-07T12:10:00;4.00;;;3.05;;
920;SDS011;447;51.332;6.778;2022-12-07T12:21:03;4.75;;;2.67;;
920;SDS011;447;51.332;6.778;2022-12-07T12:23:46;4.05;;;2.55;;
920;SDS011;447;51.332;6.778;2022-12-07T12:26:20;4.25;;;2.95;;
920;SDS011;447;51.332;6.778;2022-12-07T12:28:58;5.18;;;2.33;;
920;SDS011;447;51.332;6.778;2022-12-07T12:31:35;5.97;;;2.75;;
920;SDS011;447;51.332;6.778;2022-12-07T12:37:52;4.30;;;2.38;;
920;SDS011;447;51.332;6.778;2022-12-07T12:45:21;5.53;;;2.17;;
920;SDS011;447;51.332;6.778;2022-12-07T12:47:59;4.93;;;2.10;;
920;SDS011;447;51.332;6.778;2022-12-07T12:50:29;5.57;;;2.27;;
920;SDS011;447;51.332;6.778;2022-12-07T12:56:07;2.30;;;1.98;;
920;SDS011;447;51.332;6.778;2022-12-07T12:59:18;4.55;;;2.47;;
920;SDS011;447;51.332;6.778;2022-12-07T13:18:23;5.70;;;2.70;;
920;SDS011;447;51.332;6.778;2022-12-07T13:34:37;6.10;;;3.33;;
920;SDS011;447;51.332;6.778;2022-12-07T13:37:14;3.80;;;2.37;;
920;SDS011;447;51.332;6.778;2022-12-07T13:39:57;3.60;;;2.17;;
920;SDS011;447;51.332;6.778;2022-12-07T13:42:30;3.17;;;2.10;;
920;SDS011;447;51.332;6.778;2022-12-07T13:44:58;4.63;;;2.60;;
920;SDS011;447;51.332;6.778;2022-12-07T13:50:01;4.70;;;2.53;;
920;SDS011;447;51.332;6.778;2022-12-07T13:52:28;3.30;;;2.30;;
920;SDS011;447;51.332;6.778;2022-12-07T13:57:31;4.13;;;1.87;;
920;SDS011;447;51.332;6.778;2022-12-07T14:00:03;4.83;;;2.30;;
920;SDS011;447;51.332;6.778;2022-12-07T14:02:33;3.60;;;2.13;;
920;SDS011;447;51.332;6.778;2022-12-07T14:05:12;3.20;;;2.03;;
920;SDS011;447;51.332;6.778;2022-12-07T14:07:56;4.70;;;2.00;;
920;SDS011;447;51.332;6.778;2022-12-07T14:10:29;6.90;;;2.30;;
920;SDS011;447;51.332;6.778;2022-12-07T14:13:03;4.30;;;1.80;;
920;SDS011;447;51.332;6.778;2022-12-07T14:16:00;3.00;;;1.77;;
920;SDS011;447;51.332;6.778;2022-12-07T14:18:38;4.57;;;2.10;;
920;SDS011;447;51.332;6.778;2022-12-07T14:21:15;6.90;;;2.10;;
920;SDS011;447;51.332;6.778;2022-12-07T14:26:32;3.05;;;1.92;;
920;SDS011;447;51.332;6.778;2022-12-07T14:31:52;2.47;;;1.83;;
920;SDS011;447;51.332;6.778;2022-12-07T14:34:22;2.73;;;1.30;;
920;SDS011;447;51.332;6.778;2022-12-07T14:36:51;3.93;;;1.37;;
920;SDS011;447;51.332;6.778;2022-12-07T14:39:22;2.60;;;1.70;;
920;SDS011;447;51.332;6.778;2022-12-07T14:41:48;2.53;;;1.43;;
920;SDS011;447;51.332;6.778;2022-12-07T14:44:20;3.00;;;1.53;;
920;SDS011;447;51.332;6.778;2022-12-07T14:46:50;4.13;;;1.63;;
920;SDS011;447;51.332;6.778;2022-12-07T14:49:17;3.77;;;1.47;;
920;SDS011;447;51.332;6.778;2022-12-07T14:51:46;4.00;;;1.60;;
920;SDS011;447;51.332;6.778;2022-12-07T14:54:16;3.30;;;1.60;;
920;SDS011;447;51.332;6.778;2022-12-07T14:56:45;4.60;;;1.43;;
920;SDS011;447;51.332;6.778;2022-12-07T14:59:15;2.50;;;1.55;;
920;SDS011;447;51.332;6.778;2022-12-07T15:01:42;3.00;;;1.63;;
920;SDS011;447;51.332;6.778;2022-12-07T15:04:11;3.10;;;1.50;;
920;SDS011;447;51.332;6.778;2022-12-07T15:06:40;1.93;;;1.37;;
920;SDS011;447;51.332;6.778;2022-12-07T15:09:11;2.40;;;1.53;;
920;SDS011;447;51.332;6.778;2022-12-07T15:11:37;4.53;;;1.77;;
920;SDS011;447;51.332;6.778;2022-12-07T15:14:08;3.07;;;1.70;;
920;SDS011;447;51.332;6.778;2022-12-07T15:16:38;7.80;;;2.10;;
920;SDS011;447;51.332;6.778;2022-12-07T15:19:09;2.03;;;1.30;;
920;SDS011;447;51.332;6.778;2022-12-07T15:21:46;2.27;;;1.40;;
920;SDS011;447;51.332;6.778;2022-12-07T15:24:14;5.40;;;1.77;;
920;SDS011;447;51.332;6.778;2022-12-07T15:26:40;2.87;;;1.63;;
920;SDS011;447;51.332;6.778;2022-12-07T15:29:07;2.58;;;1.50;;
920;SDS011;447;51.332;6.778;2022-12-07T15:31:33;2.47;;;1.57;;
920;SDS011;447;51.332;6.778;2022-12-07T15:34:00;2.90;;;1.40;;
920;SDS011;447;51.332;6.778;2022-12-07T15:36:29;2.60;;;1.60;;
920;SDS011;447;51.332;6.778;2022-12-07T15:39:01;2.50;;;1.60;;
920;SDS011;447;51.332;6.778;2022-12-07T15:41:28;2.17;;;1.30;;
920;SDS011;447;51.332;6.778;2022-12-07T15:43:56;2.90;;;1.80;;
920;SDS011;447;51.332;6.778;2022-12-07T15:46:41;3.53;;;2.00;;
920;SDS011;447;51.332;6.778;2022-12-07T15:49:17;2.53;;;1.70;;
920;SDS011;447;51.332;6.778;2022-12-07T15:51:44;8.53;;;1.70;;
920;SDS011;447;51.332;6.778;2022-12-07T15:54:19;3.73;;;1.73;;
920;SDS011;447;51.332;6.778;2022-12-07T15:56:46;3.40;;;2.20;;
920;SDS011;447;51.332;6.778;2022-12-07T15:59:13;2.90;;;1.70;;
920;SDS011;447;51.332;6.778;2022-12-07T16:01:39;4.10;;;1.87;;
920;SDS011;447;51.332;6.778;2022-12-07T16:04:05;9.00;;;2.00;;
920;SDS011;447;51.332;6.778;2022-12-07T16:06:31;1.63;;;1.30;;
920;SDS011;447;51.332;6.778;2022-12-07T16:08:59;1.83;;;1.30;;
920;SDS011;447;51.332;6.778;2022-12-07T16:11:28;2.60;;;1.70;;
920;SDS011;447;51.332;6.778;2022-12-07T16:13:57;6.70;;;2.00;;
920;SDS011;447;51.332;6.778;2022-12-07T16:16:25;5.50;;;1.60;;
920;SDS011;447;51.332;6.778;2022-12-07T16:18:53;4.30;;;1.73;;
920;SDS011;447;51.332;6.778;2022-12-07T16:21:22;3.40;;;1.90;;
920;SDS011;447;51.332;6.778;2022-12-07T16:23:50;4.17;;;1.90;;
920;SDS011;447;51.332;6.778;2022-12-07T16:26:18;3.30;;;1.70;;
920;SDS011;447;51.332;6.778;2022-12-07T16:28:48;5.47;;;2.10;;
920;SDS011;447;51.332;6.778;2022-12-07T16:31:16;3.50;;;1.93;;
920;SDS011;447;51.332;6.778;2022-12-07T16:33:44;2.50;;;1.57;;
920;SDS011;447;51.332;6.778;2022-12-07T16:36:17;3.53;;;1.57;;
920;SDS011;447;51.332;6.778;2022-12-07T16:38:46;5.30;;;1.60;;
920;SDS011;447;51.332;6.778;2022-12-07T16:41:12;2.60;;;1.30;;
920;SDS011;447;51.332;6.778;2022-12-07T16:43:39;5.30;;;2.10;;
920;SDS011;447;51.332;6.778;2022-12-07T16:46:05;4.23;;;2.17;;
920;SDS011;447;51.332;6.778;2022-12-07T16:48:37;3.90;;;1.80;;
920;SDS011;447;51.332;6.778;2022-12-07T16:51:05;3.03;;;2.10;;
920;SDS011;447;51.332;6.778;2022-12-07T16:53:34;3.53;;;2.33;;
920;SDS011;447;51.332;6.778;2022-12-07T16:56:03;4.00;;;2.07;;
920;SDS011;447;51.332;6.778;2022-12-07T16:58:30;2.47;;;1.90;;
920;SDS011;447;51.332;6.778;2022-12-07T17:00:58;4.07;;;1.83;;
920;SDS011;447;51.332;6.778;2022-12-07T17:03:35;3.73;;;2.10;;
920;SDS011;447;51.332;6.778;2022-12-07T17:06:10;4.30;;;2.43;;
920;SDS011;447;51.332;6.778;2022-12-07T17:08:48;3.57;;;2.30;;
920;SDS011;447;51.332;6.778;2022-12-07T17:11:16;5.03;;;2.43;;
920;SDS011;447;51.332;6.778;2022-12-07T17:13:42;5.33;;;1.93;;
920;SDS011;447;51.332;6.778;2022-12-07T17:16:28;5.20;;;2.67;;
920;SDS011;447;51.332;6.778;2022-12-07T17:18:54;3.43;;;2.20;;
920;SDS011;447;51.332;6.778;2022-12-07T17:21:20;3.07;;;2.43;;
920;SDS011;447;51.332;6.778;2022-12-07T17:23:47;6.27;;;3.17;;
920;SDS011;447;51.332;6.778;2022-12-07T17:26:17;3.20;;;2.43;;
920;SDS011;447;51.332;6.778;2022-12-07T17:28:51;4.37;;;2.87;;
920;SDS011;447;51.332;6.778;2022-12-07T17:31:18;6.20;;;2.73;;
920;SDS011;447;51.332;6.778;2022-12-07T17:33:45;4.27;;;2.37;;
920;SDS011;447;51.332;6.778;2022-12-07T17:36:16;3.33;;;2.30;;
920;SDS011;447;51.332;6.778;2022-12-07T17:38:47;5.43;;;2.67;;
920;SDS011;447;51.332;6.778;2022-12-07T17:44:06;5.53;;;2.90;;
920;SDS011;447;51.332;6.778;2022-12-07T17:46:34;4.80;;;2.90;;
920;SDS011;447;51.332;6.778;2022-12-07T17:49:02;9.03;;;3.50;;
920;SDS011;447;51.332;6.778;2022-12-07T17:51:32;4.80;;;3.20;;
920;SDS011;447;51.332;6.778;2022-12-07T17:54:17;2.83;;;2.37;;
920;SDS011;447;51.332;6.778;2022-12-07T17:56:43;5.00;;;2.63;;
920;SDS011;447;51.332;6.778;2022-12-07T17:59:10;4.57;;;3.13;;
920;SDS011;447;51.332;6.778;2022-12-07T18:01:36;4.37;;;3.07;;
920;SDS011;447;51.332;6.778;2022-12-07T18:04:03;5.87;;;2.90;;
920;SDS011;447;51.332;6.778;2022-12-07T18:06:33;6.63;;;3.10;;
920;SDS011;447;51.332;6.778;2022-12-07T18:08:59;5.03;;;2.53;;
920;SDS011;447;51.332;6.778;2022-12-07T18:11:28;4.00;;;3.27;;
920;SDS011;447;51.332;6.778;2022-12-07T18:13:56;6.73;;;2.87;;
920;SDS011;447;51.332;6.778;2022-12-07T18:16:23;8.47;;;3.60;;
920;SDS011;447;51.332;6.778;2022-12-07T18:18:54;4.40;;;2.97;;
920;SDS011;447;51.332;6.778;2022-12-07T18:21:24;6.00;;;3.53;;
920;SDS011;447;51.332;6.778;2022-12-07T18:23:56;5.77;;;3.27;;
920;SDS011;447;51.332;6.778;2022-12-07T18:26:26;6.40;;;3.30;;
920;SDS011;447;51.332;6.778;2022-12-07T18:28:53;4.00;;;2.80;;
920;SDS011;447;51.332;6.778;2022-12-07T18:31:19;4.43;;;3.10;;
920;SDS011;447;51.332;6.778;2022-12-07T18:33:48;4.70;;;3.10;;
920;SDS011;447;51.332;6.778;2022-12-07T18:36:14;6.47;;;3.07;;
920;SDS011;447;51.332;6.778;2022-12-07T18:38:46;5.87;;;3.53;;
920;SDS011;447;51.332;6.778;2022-12-07T18:41:12;5.40;;;3.33;;
920;SDS011;447;51.332;6.778;2022-12-07T18:43:44;8.00;;;4.20;;
920;SDS011;447;51.332;6.778;2022-12-07T18:46:14;4.33;;;3.73;;